createdAt,value
2017-07-18T00:01:08.433Z,5.30
2017-07-18T00:03:34.875Z,4.07
2017-07-18T00:06:01.406Z,5.53
2017-07-18T00:08:32.772Z,5.47
2017-07-18T00:10:59.429Z,7.60
2017-07-18T00:13:26.036Z,8.60
2017-07-18T00:15:52.604Z,5.70
2017-07-18T00:18:19.193Z,4.73
2017-07-18T00:20:45.781Z,4.20
2017-07-18T00:23:12.213Z,5.43
2017-07-18T00:25:40.177Z,6.00
2017-07-18T00:28:06.725Z,6.60
2017-07-18T00:30:33.298Z,7.37
2017-07-18T00:32:59.851Z,3.80
2017-07-18T00:35:27.166Z,13.30
2017-07-18T00:37:53.745Z,3.93
2017-07-18T00:40:21.092Z,3.53
2017-07-18T00:42:48.994Z,5.00
2017-07-18T00:45:15.585Z,4.37
2017-07-18T00:47:42.208Z,6.47
2017-07-18T00:50:09.510Z,6.80
2017-07-18T00:52:36.813Z,6.43
2017-07-18T00:55:03.306Z,4.33
2017-07-18T00:57:30.608Z,5.67
2017-07-18T00:59:57.192Z,3.83
2017-07-18T01:02:23.810Z,4.97
2017-07-18T01:04:50.371Z,6.83
2017-07-18T01:07:16.973Z,5.00
2017-07-18T01:09:44.265Z,7.23
2017-07-18T01:12:11.588Z,5.80
2017-07-18T01:14:38.185Z,7.37
2017-07-18T01:17:05.502Z,7.90
2017-07-18T01:19:32.084Z,4.30
2017-07-18T01:21:58.676Z,4.43
2017-07-18T01:24:25.236Z,5.30
2017-07-18T01:26:52.409Z,7.63
2017-07-18T01:29:20.820Z,8.80
2017-07-18T01:31:47.495Z,7.60
2017-07-18T01:34:14.079Z,8.00
2017-07-18T01:36:41.412Z,9.13
2017-07-18T01:39:07.993Z,8.60
2017-07-18T01:41:34.553Z,8.60
2017-07-18T01:44:01.145Z,5.93
2017-07-18T01:46:27.796Z,6.10
2017-07-18T01:48:54.400Z,6.10
2017-07-18T01:51:21.729Z,13.00
2017-07-18T01:53:48.217Z,8.63
2017-07-18T01:56:14.810Z,10.73
2017-07-18T01:58:45.792Z,8.03
2017-07-18T02:01:12.379Z,7.47
2017-07-18T02:03:38.965Z,9.03
2017-07-18T02:06:06.268Z,8.57
2017-07-18T02:08:32.857Z,6.73
2017-07-18T02:10:59.420Z,8.57
2017-07-18T02:13:26.987Z,7.57
2017-07-18T02:15:53.558Z,9.00
2017-07-18T02:18:20.908Z,8.73
2017-07-18T02:20:47.475Z,7.20
2017-07-18T02:23:14.049Z,7.47
2017-07-18T02:25:40.617Z,9.40
2017-07-18T02:28:07.188Z,6.57
2017-07-18T02:30:39.749Z,10.70
2017-07-18T02:33:06.320Z,12.13
2017-07-18T02:35:32.917Z,7.87
2017-07-18T02:37:59.473Z,7.03
2017-07-18T02:40:26.046Z,10.60
2017-07-18T02:42:52.626Z,7.50
2017-07-18T02:45:23.316Z,9.80
2017-07-18T02:47:49.935Z,6.93
2017-07-18T02:50:16.498Z,6.40
2017-07-18T02:52:43.862Z,14.10
2017-07-18T02:55:10.495Z,7.10
2017-07-18T02:57:37.069Z,6.90
2017-07-18T03:00:05.018Z,8.93
2017-07-18T03:02:31.641Z,6.30
2017-07-18T03:04:58.208Z,14.93
2017-07-18T03:07:24.786Z,7.33
2017-07-18T03:09:51.284Z,8.00
2017-07-18T03:12:17.873Z,7.47
2017-07-18T03:14:44.474Z,8.00
2017-07-18T03:17:10.909Z,9.10
2017-07-18T03:19:40.710Z,8.60
2017-07-18T03:22:07.253Z,14.90
2017-07-18T03:24:34.767Z,12.37
2017-07-18T03:27:01.371Z,6.53
2017-07-18T03:29:27.964Z,10.30
2017-07-18T03:31:54.544Z,9.23
2017-07-18T03:34:21.204Z,8.90
2017-07-18T03:36:47.741Z,8.57
2017-07-18T03:39:14.274Z,9.17
2017-07-18T03:41:40.842Z,7.93
2017-07-18T03:44:07.286Z,13.07
2017-07-18T03:46:34.629Z,7.30
2017-07-18T03:49:01.202Z,7.93
2017-07-18T03:51:27.808Z,7.47
2017-07-18T03:53:55.595Z,8.73
2017-07-18T03:56:22.206Z,7.50
2017-07-18T03:58:48.864Z,9.43
2017-07-18T04:01:15.484Z,8.57
2017-07-18T04:03:42.048Z,9.90
2017-07-18T04:06:09.382Z,7.73
2017-07-18T04:08:35.991Z,8.00
2017-07-18T04:11:04.369Z,8.67
2017-07-18T04:13:30.926Z,9.80
2017-07-18T04:15:57.476Z,7.10
2017-07-18T04:18:24.105Z,9.40
2017-07-18T04:20:50.656Z,10.80
2017-07-18T04:23:17.232Z,11.63
2017-07-18T04:25:43.786Z,7.23
2017-07-18T04:28:10.444Z,7.70
2017-07-18T04:30:37.883Z,9.00
2017-07-18T04:33:04.237Z,9.00
2017-07-18T04:35:30.797Z,9.10
2017-07-18T04:37:57.406Z,6.30
2017-07-18T04:40:24.136Z,8.70
2017-07-18T04:42:50.681Z,7.53
2017-07-18T04:45:24.041Z,6.73
2017-07-18T04:47:50.361Z,10.30
2017-07-18T04:50:16.702Z,6.57
2017-07-18T04:52:43.032Z,8.07
2017-07-18T04:55:09.400Z,11.10
2017-07-18T04:57:35.717Z,7.70
2017-07-18T05:00:02.130Z,8.70
2017-07-18T05:02:32.300Z,9.57
2017-07-18T05:04:58.652Z,8.37
2017-07-18T05:07:24.973Z,9.47
2017-07-18T05:09:51.412Z,9.37
2017-07-18T05:12:18.774Z,12.90
2017-07-18T05:14:49.921Z,8.20
2017-07-18T05:17:16.366Z,12.43
2017-07-18T05:19:42.804Z,13.93
2017-07-18T05:22:09.880Z,8.30
2017-07-18T05:24:50.135Z,8.97
2017-07-18T05:27:16.567Z,9.13
2017-07-18T05:29:42.961Z,8.00
2017-07-18T05:32:09.307Z,10.00
2017-07-18T05:34:35.687Z,9.17
2017-07-18T05:37:02.044Z,10.13
2017-07-18T05:39:28.478Z,12.30
2017-07-18T05:41:54.840Z,10.77
2017-07-18T05:44:21.241Z,8.50
2017-07-18T05:46:50.519Z,9.03
2017-07-18T05:49:16.867Z,10.23
2017-07-18T05:51:43.204Z,7.27
2017-07-18T05:54:09.758Z,9.43
2017-07-18T05:56:36.140Z,7.53
2017-07-18T05:59:02.478Z,7.53
2017-07-18T06:01:28.883Z,7.40
2017-07-18T06:03:55.286Z,7.20
2017-07-18T06:06:21.705Z,6.33
2017-07-18T06:08:48.139Z,10.90
2017-07-18T06:11:14.490Z,10.53
2017-07-18T06:13:40.843Z,12.80
2017-07-18T06:16:07.182Z,8.40
2017-07-18T06:18:33.548Z,11.40
2017-07-18T06:21:00.006Z,8.47
2017-07-18T06:23:27.096Z,7.87
2017-07-18T06:25:53.464Z,8.83
2017-07-18T06:28:19.844Z,7.47
2017-07-18T06:30:46.942Z,7.87
2017-07-18T06:33:14.115Z,11.90
2017-07-18T06:35:40.479Z,9.90
2017-07-18T06:38:06.840Z,8.40
2017-07-18T06:40:33.190Z,9.03
2017-07-18T06:42:59.609Z,10.40
2017-07-18T06:45:26.000Z,6.53
2017-07-18T06:47:54.760Z,8.30
2017-07-18T06:50:22.762Z,13.47
2017-07-18T06:52:49.110Z,8.47
2017-07-18T06:55:15.478Z,7.33
2017-07-18T06:57:41.838Z,7.90
2017-07-18T07:00:08.205Z,7.97
2017-07-18T07:02:34.566Z,9.40
2017-07-18T07:05:02.390Z,9.23
2017-07-18T07:07:28.764Z,7.53
2017-07-18T07:09:55.113Z,6.00
2017-07-18T07:12:21.482Z,8.43
2017-07-18T07:14:48.561Z,5.87
2017-07-18T07:17:14.878Z,5.97
2017-07-18T07:19:41.228Z,6.40
2017-07-18T07:22:07.578Z,6.60
2017-07-18T07:24:33.913Z,8.03
2017-07-18T07:27:00.274Z,7.67
2017-07-18T07:29:27.377Z,6.77
2017-07-18T07:31:53.697Z,7.90
2017-07-18T07:34:20.106Z,10.30
2017-07-18T07:36:46.457Z,5.93
2017-07-18T07:39:14.484Z,6.60
2017-07-18T07:41:40.821Z,7.63
2017-07-18T07:44:07.162Z,5.57
2017-07-18T07:46:33.548Z,7.83
2017-07-18T07:48:59.910Z,8.07
2017-07-18T07:51:26.237Z,6.90
2017-07-18T07:53:52.591Z,5.43
2017-07-18T07:56:19.666Z,5.17
2017-07-18T07:58:46.787Z,4.80
2017-07-18T08:01:13.130Z,5.37
2017-07-18T08:03:39.464Z,10.10
2017-07-18T08:06:05.811Z,6.23
2017-07-18T08:08:32.915Z,6.67
2017-07-18T08:10:59.264Z,6.70
2017-07-18T08:13:25.612Z,6.57
2017-07-18T08:15:51.956Z,4.43
2017-07-18T08:18:19.072Z,8.50
2017-07-18T08:20:45.437Z,4.83
2017-07-18T08:23:11.770Z,4.43
2017-07-18T08:25:38.251Z,3.63
2017-07-18T08:28:04.600Z,10.13
2017-07-18T08:30:30.951Z,4.87
2017-07-18T08:32:58.036Z,7.20
2017-07-18T08:35:24.508Z,5.10
2017-07-18T08:37:50.853Z,5.27
2017-07-18T08:40:17.169Z,5.67
2017-07-18T08:42:43.517Z,4.93
2017-07-18T08:45:09.871Z,4.03
2017-07-18T08:47:36.232Z,3.70
2017-07-18T08:50:02.612Z,3.00
2017-07-18T08:52:29.704Z,7.63
2017-07-18T08:54:56.047Z,4.37
2017-07-18T08:57:22.426Z,4.57
2017-07-18T08:59:48.776Z,4.07
2017-07-18T09:02:15.122Z,4.70
2017-07-18T09:04:41.433Z,4.63
2017-07-18T09:07:07.748Z,3.07
2017-07-18T09:09:34.820Z,4.23
2017-07-18T09:12:01.181Z,6.70
2017-07-18T09:14:27.583Z,3.37
2017-07-18T09:16:53.930Z,2.90
2017-07-18T09:19:20.309Z,3.10
2017-07-18T09:21:46.676Z,4.77
2017-07-18T09:24:13.022Z,3.60
2017-07-18T09:26:39.356Z,5.13
2017-07-18T09:29:05.702Z,5.40
2017-07-18T09:31:32.044Z,6.03
2017-07-18T09:33:58.437Z,3.30
2017-07-18T09:36:24.877Z,5.30
2017-07-18T09:38:51.211Z,2.80
2017-07-18T09:41:24.475Z,4.77
2017-07-18T09:43:50.963Z,2.43
2017-07-18T09:46:17.296Z,2.50
2017-07-18T09:48:43.599Z,4.63
2017-07-18T09:51:09.921Z,2.87
2017-07-18T09:53:36.979Z,4.00
2017-07-18T09:56:03.288Z,2.50
2017-07-18T09:58:29.739Z,4.90
2017-07-18T10:00:56.078Z,4.80
2017-07-18T10:03:22.442Z,3.33
2017-07-18T10:05:48.845Z,4.17
2017-07-18T10:08:15.589Z,4.73
2017-07-18T10:10:42.036Z,4.80
2017-07-18T10:13:08.457Z,4.90
2017-07-18T10:15:34.767Z,3.90
2017-07-18T10:18:01.158Z,3.77
2017-07-18T10:20:27.495Z,3.80
2017-07-18T10:22:53.857Z,3.37
2017-07-18T10:25:20.194Z,3.77
2017-07-18T10:27:46.524Z,2.87
2017-07-18T10:30:12.964Z,5.47
2017-07-18T10:32:39.272Z,3.93
2017-07-18T10:35:05.560Z,5.13
2017-07-18T10:37:31.892Z,3.47
2017-07-18T10:39:58.188Z,3.13
2017-07-18T10:42:24.549Z,5.83
2017-07-18T10:44:50.885Z,5.27
2017-07-18T10:47:17.209Z,4.10
2017-07-18T10:49:43.540Z,3.37
2017-07-18T10:52:09.875Z,2.97
2017-07-18T10:54:39.661Z,2.73
2017-07-18T10:57:06.013Z,2.90
2017-07-18T10:59:32.325Z,3.73
2017-07-18T11:02:02.427Z,5.03
2017-07-18T11:04:28.757Z,3.53
2017-07-18T11:06:55.096Z,5.10
2017-07-18T11:09:21.424Z,4.40
2017-07-18T11:11:47.738Z,2.30
2017-07-18T11:14:14.804Z,3.07
2017-07-18T11:16:41.138Z,2.67
2017-07-18T11:19:07.536Z,3.23
2017-07-18T11:21:33.868Z,5.20
2017-07-18T11:24:01.006Z,4.13
2017-07-18T11:26:27.373Z,3.20
2017-07-18T11:28:53.714Z,2.90
2017-07-18T11:31:20.028Z,4.17
2017-07-18T11:33:46.344Z,5.97
2017-07-18T11:36:12.653Z,5.93
2017-07-18T11:38:39.192Z,6.73
2017-07-18T11:41:06.258Z,4.20
2017-07-18T11:43:32.581Z,6.03
2017-07-18T11:45:58.933Z,4.90
2017-07-18T11:48:25.250Z,3.80
2017-07-18T11:50:51.566Z,2.53
2017-07-18T11:53:23.036Z,5.00
2017-07-18T11:55:49.408Z,3.00
2017-07-18T11:58:15.771Z,6.47
2017-07-18T12:00:42.113Z,6.17
2017-07-18T12:03:08.426Z,4.20
2017-07-18T12:05:34.745Z,2.93
2017-07-18T12:08:07.540Z,2.30
2017-07-18T12:10:33.865Z,3.10
2017-07-18T12:13:00.287Z,8.33
2017-07-18T12:15:26.652Z,6.50
2017-07-18T12:17:53.696Z,2.93
2017-07-18T12:20:20.729Z,3.53
2017-07-18T12:22:47.128Z,2.93
2017-07-18T12:25:13.525Z,2.20
2017-07-18T12:27:39.858Z,2.70
2017-07-18T12:30:06.172Z,4.50
2017-07-18T12:32:32.491Z,2.90
2017-07-18T12:34:58.791Z,5.70
2017-07-18T12:37:25.101Z,2.70
2017-07-18T12:39:51.499Z,3.60
2017-07-18T12:42:17.873Z,4.10
2017-07-18T12:44:44.197Z,5.43
2017-07-18T12:47:10.566Z,2.17
2017-07-18T12:49:36.924Z,4.13
2017-07-18T12:52:03.294Z,4.60
2017-07-18T12:54:29.696Z,2.70
2017-07-18T12:56:56.024Z,2.97
2017-07-18T12:59:22.370Z,2.40
2017-07-18T13:01:48.696Z,5.80
2017-07-18T13:04:15.032Z,6.60
2017-07-18T13:06:45.215Z,9.90
2017-07-18T13:09:11.565Z,2.73
2017-07-18T13:11:37.933Z,2.40
2017-07-18T13:14:04.262Z,2.10
2017-07-18T13:16:30.598Z,5.03
2017-07-18T13:18:56.947Z,2.67
2017-07-18T13:21:23.424Z,3.00
2017-07-18T13:23:56.192Z,2.70
2017-07-18T13:26:22.519Z,2.73
2017-07-18T13:28:48.909Z,3.20
2017-07-18T13:31:15.232Z,3.97
2017-07-18T13:33:41.604Z,2.73
2017-07-18T13:36:07.925Z,2.43
2017-07-18T13:38:34.277Z,3.00
2017-07-18T13:41:00.580Z,2.90
2017-07-18T13:43:26.922Z,4.10
2017-07-18T13:45:53.252Z,1.90
2017-07-18T13:48:19.608Z,2.50
2017-07-18T13:50:46.008Z,2.13
2017-07-18T13:53:12.354Z,2.30
2017-07-18T13:55:38.677Z,2.57
2017-07-18T13:58:09.449Z,3.50
2017-07-18T14:00:35.818Z,2.70
2017-07-18T14:03:02.120Z,2.60
2017-07-18T14:05:28.442Z,4.43
2017-07-18T14:07:54.759Z,2.23
2017-07-18T14:10:21.090Z,3.60
2017-07-18T14:12:47.426Z,3.97
2017-07-18T14:15:13.799Z,4.37
2017-07-18T14:17:40.130Z,3.57
2017-07-18T14:20:06.428Z,3.77
2017-07-18T14:22:32.786Z,2.80
2017-07-18T14:24:59.089Z,2.30
2017-07-18T14:27:25.400Z,2.63
2017-07-18T14:29:51.957Z,2.60
2017-07-18T14:32:18.949Z,2.40
2017-07-18T14:34:45.256Z,3.23
2017-07-18T14:37:11.562Z,2.30
2017-07-18T14:39:38.072Z,2.30
2017-07-18T14:42:04.480Z,4.87
2017-07-18T14:44:30.809Z,5.93
2017-07-18T14:46:57.131Z,3.10
2017-07-18T14:49:23.467Z,5.87
2017-07-18T14:51:50.531Z,3.20
2017-07-18T14:54:16.861Z,2.40
2017-07-18T14:56:43.194Z,2.57
2017-07-18T14:59:09.520Z,2.80
2017-07-18T15:01:40.041Z,4.47
2017-07-18T15:04:07.690Z,2.50
2017-07-18T15:06:34.083Z,2.80
2017-07-18T15:09:00.402Z,3.63
2017-07-18T15:11:26.745Z,3.17
2017-07-18T15:13:53.098Z,2.90
2017-07-18T15:16:19.440Z,2.70
2017-07-18T15:18:46.512Z,2.90
2017-07-18T15:21:12.834Z,2.40
2017-07-18T15:23:39.142Z,2.60
2017-07-18T15:26:06.246Z,2.90
2017-07-18T15:28:32.675Z,3.07
2017-07-18T15:30:59.005Z,2.43
2017-07-18T15:33:25.427Z,2.70
2017-07-18T15:35:51.771Z,4.10
2017-07-18T15:38:18.213Z,2.70
2017-07-18T15:40:44.613Z,3.33
2017-07-18T15:43:10.931Z,4.17
2017-07-18T15:45:37.278Z,3.20
2017-07-18T15:48:03.628Z,2.90
2017-07-18T15:50:29.937Z,2.77
2017-07-18T15:52:56.755Z,2.77
2017-07-18T15:55:23.076Z,3.03
2017-07-18T15:57:49.432Z,2.43
2017-07-18T16:00:15.925Z,3.73
2017-07-18T16:02:48.281Z,3.03
2017-07-18T16:05:14.602Z,2.40
2017-07-18T16:07:40.944Z,2.60
2017-07-18T16:10:07.289Z,4.00
2017-07-18T16:12:33.628Z,3.77
2017-07-18T16:14:59.952Z,3.23
2017-07-18T16:17:26.268Z,3.83
2017-07-18T16:19:57.005Z,3.50
2017-07-18T16:22:23.376Z,2.70
2017-07-18T16:24:49.721Z,4.30
2017-07-18T16:27:16.852Z,2.43
2017-07-18T16:29:43.178Z,2.43
2017-07-18T16:32:10.239Z,2.70
2017-07-18T16:34:36.642Z,2.10
2017-07-18T16:37:04.972Z,3.90
2017-07-18T16:39:31.322Z,3.30
2017-07-18T16:41:57.676Z,2.70
2017-07-18T16:44:23.995Z,2.43
2017-07-18T16:46:50.374Z,3.93
2017-07-18T16:49:16.737Z,2.43
2017-07-18T16:51:43.072Z,3.73
2017-07-18T16:54:10.171Z,3.50
2017-07-18T16:56:36.500Z,9.20
2017-07-18T16:59:02.891Z,3.13
2017-07-18T17:01:29.214Z,2.40
2017-07-18T17:03:55.532Z,2.80
2017-07-18T17:06:21.864Z,3.30
2017-07-18T17:08:48.185Z,4.33
2017-07-18T17:11:14.516Z,2.67
2017-07-18T17:13:40.858Z,2.47
2017-07-18T17:16:07.197Z,2.83
2017-07-18T17:18:33.592Z,2.83
2017-07-18T17:20:59.960Z,3.80
2017-07-18T17:23:26.352Z,4.63
2017-07-18T17:25:52.802Z,4.00
2017-07-18T17:28:19.193Z,3.27
2017-07-18T17:30:45.572Z,3.60
2017-07-18T17:33:11.932Z,2.90
2017-07-18T17:35:38.249Z,5.17
2017-07-18T17:38:04.580Z,2.87
2017-07-18T17:40:30.911Z,2.67
2017-07-18T17:42:57.218Z,2.83
2017-07-18T17:45:23.573Z,5.50
2017-07-18T17:47:49.912Z,2.80
2017-07-18T17:50:16.236Z,2.23
2017-07-18T17:52:42.614Z,2.30
2017-07-18T17:55:09.372Z,2.17
2017-07-18T17:57:35.692Z,2.90
2017-07-18T18:00:02.679Z,2.60
2017-07-18T18:02:29.749Z,3.27
2017-07-18T18:04:56.087Z,5.13
2017-07-18T18:07:22.415Z,2.50
2017-07-18T18:09:48.768Z,2.60
2017-07-18T18:12:15.078Z,3.17
2017-07-18T18:14:41.415Z,4.03
2017-07-18T18:17:07.774Z,4.67
2017-07-18T18:19:34.164Z,2.57
2017-07-18T18:22:00.492Z,3.23
2017-07-18T18:24:26.809Z,3.10
2017-07-18T18:26:53.144Z,3.60
2017-07-18T18:29:19.485Z,2.50
2017-07-18T18:31:45.849Z,5.23
2017-07-18T18:34:19.104Z,3.93
2017-07-18T18:36:45.453Z,2.67
2017-07-18T18:39:11.768Z,2.30
2017-07-18T18:41:38.127Z,4.43
2017-07-18T18:44:04.484Z,3.50
2017-07-18T18:46:30.936Z,2.90
2017-07-18T18:49:01.287Z,4.30
2017-07-18T18:51:27.624Z,2.63
2017-07-18T18:53:53.945Z,3.27
2017-07-18T18:56:20.280Z,2.73
2017-07-18T18:58:47.368Z,2.93
2017-07-18T19:01:13.704Z,5.90
2017-07-18T19:03:40.058Z,2.97
2017-07-18T19:06:07.148Z,2.60
2017-07-18T19:08:33.517Z,5.07
2017-07-18T19:10:59.854Z,3.83
2017-07-18T19:13:29.392Z,5.83
2017-07-18T19:15:55.775Z,7.70
2017-07-18T19:18:22.123Z,2.50
2017-07-18T19:20:48.462Z,2.57
2017-07-18T19:23:15.551Z,2.97
2017-07-18T19:25:41.914Z,3.90
2017-07-18T19:28:08.253Z,4.00
2017-07-18T19:30:37.893Z,3.40
2017-07-18T19:33:04.369Z,4.90
2017-07-18T19:35:30.717Z,4.00
2017-07-18T19:37:57.248Z,4.73
2017-07-18T19:40:23.573Z,2.60
2017-07-18T19:42:49.944Z,2.63
2017-07-18T19:45:16.285Z,5.90
2017-07-18T19:47:42.616Z,3.23
2017-07-18T19:50:08.964Z,3.30
2017-07-18T19:52:35.304Z,3.27
2017-07-18T19:55:02.362Z,4.20
2017-07-18T19:57:28.897Z,3.13
2017-07-18T19:59:55.206Z,5.80
2017-07-18T20:02:21.510Z,2.93
2017-07-18T20:04:47.856Z,2.93
2017-07-18T20:07:14.209Z,3.40
2017-07-18T20:09:40.580Z,2.73
2017-07-18T20:12:06.916Z,6.17
2017-07-18T20:14:33.221Z,3.87
2017-07-18T20:16:59.557Z,3.10
2017-07-18T20:19:25.905Z,2.90
2017-07-18T20:21:52.216Z,4.33
2017-07-18T20:24:18.569Z,3.63
2017-07-18T20:26:44.894Z,4.40
2017-07-18T20:29:11.252Z,3.97
2017-07-18T20:31:38.310Z,3.17
2017-07-18T20:34:04.617Z,5.20
2017-07-18T20:36:30.926Z,3.40
2017-07-18T20:38:57.355Z,4.17
2017-07-18T20:41:24.276Z,4.27
2017-07-18T20:43:50.669Z,8.23
2017-07-18T20:46:17.013Z,3.47
2017-07-18T20:48:43.428Z,2.77
2017-07-18T20:51:09.774Z,3.73
2017-07-18T20:53:36.100Z,4.20
2017-07-18T20:56:02.408Z,4.40
2017-07-18T20:58:28.720Z,6.77
2017-07-18T21:00:55.032Z,3.50
2017-07-18T21:03:21.368Z,3.30
2017-07-18T21:05:47.690Z,4.17
2017-07-18T21:08:14.016Z,3.40
2017-07-18T21:10:40.433Z,6.67
2017-07-18T21:13:06.780Z,4.40
2017-07-18T21:15:33.259Z,6.40
2017-07-18T21:17:59.680Z,6.33
2017-07-18T21:20:26.768Z,19.23
2017-07-18T21:22:53.181Z,5.80
2017-07-18T21:25:19.570Z,4.50
2017-07-18T21:27:46.080Z,6.77
2017-07-18T21:30:12.425Z,4.90
2017-07-18T21:32:38.813Z,4.63
2017-07-18T21:35:07.309Z,3.97
2017-07-18T21:37:33.663Z,6.67
2017-07-18T21:40:00.065Z,4.67
2017-07-18T21:42:26.428Z,4.43
2017-07-18T21:44:52.852Z,6.97
2017-07-18T21:47:19.332Z,5.73
2017-07-18T21:49:45.927Z,4.33
2017-07-18T21:52:12.500Z,4.17
2017-07-18T21:54:38.944Z,4.50
2017-07-18T21:57:05.296Z,4.03
2017-07-18T21:59:31.638Z,4.33
2017-07-18T22:01:57.988Z,3.83
2017-07-18T22:04:24.368Z,4.90
2017-07-18T22:06:50.731Z,5.90
2017-07-18T22:09:17.149Z,4.97
2017-07-18T22:11:43.577Z,6.73
2017-07-18T22:14:09.954Z,5.33
2017-07-18T22:16:36.295Z,4.10
2017-07-18T22:19:02.703Z,4.60
2017-07-18T22:21:29.033Z,5.77
2017-07-18T22:23:56.153Z,4.57
2017-07-18T22:26:22.485Z,6.27
2017-07-18T22:28:48.835Z,4.93
2017-07-18T22:31:15.184Z,7.33
2017-07-18T22:33:41.525Z,5.30
2017-07-18T22:36:07.852Z,7.67
2017-07-18T22:38:34.258Z,4.73
2017-07-18T22:41:01.008Z,5.60
2017-07-18T22:43:27.448Z,16.23
2017-07-18T22:45:53.897Z,5.53
2017-07-18T22:48:26.349Z,10.13
2017-07-18T22:50:52.708Z,5.10
2017-07-18T22:53:19.029Z,5.20
2017-07-18T22:55:46.644Z,4.97
2017-07-18T22:58:12.943Z,5.50
2017-07-18T23:00:39.272Z,5.43
2017-07-18T23:03:05.624Z,7.53
2017-07-18T23:05:32.010Z,4.50
2017-07-18T23:07:58.360Z,10.87
2017-07-18T23:10:28.574Z,8.57
2017-07-18T23:12:57.853Z,13.80
2017-07-18T23:15:24.254Z,5.33
2017-07-18T23:17:50.607Z,6.67
2017-07-18T23:20:16.967Z,6.83
2017-07-18T23:22:43.426Z,5.90
2017-07-18T23:25:09.732Z,6.20
2017-07-18T23:27:36.070Z,5.70
2017-07-18T23:30:04.680Z,6.50
2017-07-18T23:32:31.046Z,6.67
2017-07-18T23:34:58.129Z,6.17
2017-07-18T23:37:24.503Z,6.10
2017-07-18T23:39:50.860Z,6.13
2017-07-18T23:42:17.192Z,6.83
2017-07-18T23:44:43.524Z,6.90
2017-07-18T23:47:14.568Z,9.13
2017-07-18T23:49:40.935Z,6.53
2017-07-18T23:52:07.308Z,7.03
2017-07-18T23:54:33.671Z,6.17
2017-07-18T23:57:00.042Z,8.57
2017-07-18T23:59:27.124Z,9.77
